Portada
Imágenes satélite Pronóstico 15 díasClimaPredicción Marítima Ciclones Rayo AeropuertosFAQ Noticias Acerca
El tiempo : Europa África América del Norte América del Sur Asia Australia-Oceanía Otros
Idiomas Contacto

Tarbes Lourdes, Francia

Ossun

latitud: 43-11N, longitud: 000-00W, altitud: 379 m


METAR: LFBT 231800Z AUTO 30003KT 9999 OVC054 25/17 Q1013
short-TAF: expira (33210 horas)
long-TAF: LFBT 231700Z 2318/2418 26006KT 9999 BKN050 TEMPO 2400/2407 4000 MIFG BKN008

Hora: 20:16 (18:16 UTC)

Observación

El informe se hizo hace 16 minutos, a las 18:00 UTC  
Viento 03 kt del oeste-noroeste
Temperatura 25°C
Humedad 61%
Presión 1013 hPa
Visibilidad 10 km o más
Cielo cubierto a una altura de 5400 ft

Cambiar las unidades

Pronóstico

El informe se hizo hace 1 hora y 1 minutos, a las 17:15 UTC  
Pronóstico válido del 23 a las 18 UTC al 24 a las 18 UTC
Viento 06 kt del oeste
Visibilidad 10 km o más
Cielo nuboso a una altura de 5000 ft
Temporalmente
del 24 a las 00 UTC al 24 a las 07 UTC
Visibilidad 4000 m
Cielo nuboso a una altura de 800 ft
baja niebla
La información que se ofrece en estas páginas está sujeta a una cláusula de exención de responsabilidad
El tiempo : Europa África América del Norte América del Sur Asia Australia-Oceanía Otros
Imágenes satélite Pronóstico 15 díasClimaPredicción Marítima Ciclones Rayo AeropuertosFAQ Idiomas Contacto Noticias Acerca